createdAt,value
2022-07-27T00:01:08.936Z,99704.88
2022-07-27T00:03:37.124Z,99701.34
2022-07-27T00:06:05.248Z,99700.53
2022-07-27T00:08:33.222Z,99698.06
2022-07-27T00:11:01.192Z,99700.81
2022-07-27T00:13:30.751Z,99706.25
2022-07-27T00:15:58.844Z,99705.44
2022-07-27T00:18:26.921Z,99708.19
2022-07-27T00:20:54.880Z,99700.28
2022-07-27T00:23:22.895Z,99694.00
2022-07-27T00:25:50.889Z,99705.75
2022-07-27T00:28:18.905Z,99708.47
2022-07-27T00:30:48.325Z,99708.47
2022-07-27T00:33:16.988Z,99709.28
2022-07-27T00:35:45.756Z,99710.91
2022-07-27T00:38:13.800Z,99710.09
2022-07-27T00:40:41.795Z,99708.19
2022-07-27T00:43:09.821Z,99708.19
2022-07-27T00:45:37.913Z,99702.72
2022-07-27T00:48:07.631Z,99712.84
2022-07-27T00:50:36.079Z,99715.56
2022-07-27T00:53:06.094Z,99710.09
2022-07-27T00:55:34.177Z,99703.84
2022-07-27T00:58:02.261Z,99705.75
2022-07-27T01:00:30.213Z,99708.47
2022-07-27T01:02:58.331Z,99706.81
2022-07-27T01:05:36.351Z,99715.03
2022-07-27T01:08:06.873Z,99712.28
2022-07-27T01:10:35.278Z,99716.94
2022-07-27T01:13:03.531Z,99712.28
2022-07-27T01:15:31.670Z,99705.22
2022-07-27T01:18:05.209Z,99706.28
2022-07-27T01:20:34.783Z,99714.47
2022-07-27T01:23:04.123Z,99714.78
2022-07-27T01:25:32.212Z,99716.69
2022-07-27T01:28:00.206Z,99715.03
2022-07-27T01:30:30.200Z,99713.97
2022-07-27T01:33:02.084Z,99720.50
2022-07-27T01:35:30.529Z,99716.16
2022-07-27T01:37:58.535Z,99727.06
2022-07-27T01:40:27.974Z,99718.06
2022-07-27T01:42:55.941Z,99716.41
2022-07-27T01:45:24.107Z,99717.22
2022-07-27T01:47:52.307Z,99719.13
2022-07-27T01:50:20.389Z,99718.31
2022-07-27T01:52:48.706Z,99712.88
2022-07-27T01:55:19.108Z,99717.22
2022-07-27T01:57:48.544Z,99717.22
2022-07-27T02:00:16.831Z,99710.94
2022-07-27T02:02:44.837Z,99717.22
2022-07-27T02:05:12.935Z,99714.50
2022-07-27T02:07:41.038Z,99717.22
2022-07-27T02:10:09.458Z,99711.75
2022-07-27T02:12:36.462Z,99711.75
2022-07-27T02:15:07.867Z,99711.75
2022-07-27T02:17:36.151Z,99709.03
2022-07-27T02:20:04.224Z,99704.69
2022-07-27T02:22:32.454Z,99705.50
2022-07-27T02:25:00.454Z,99702.75
2022-07-27T02:27:28.565Z,99703.56
2022-07-27T02:29:58.024Z,99704.69
2022-07-27T02:32:27.472Z,99698.41
2022-07-27T02:34:55.453Z,99703.06
2022-07-27T02:37:23.483Z,99703.88
2022-07-27T02:39:51.526Z,99706.88
2022-07-27T02:42:19.490Z,99705.78
2022-07-27T02:44:47.490Z,99698.69
2022-07-27T02:47:15.738Z,99711.50
2022-07-27T02:49:45.109Z,99712.63
2022-07-27T02:52:13.110Z,99709.06
2022-07-27T02:54:41.792Z,99709.06
2022-07-27T02:57:09.748Z,99710.16
2022-07-27T02:59:37.689Z,99710.16
2022-07-27T03:02:05.649Z,99709.34
2022-07-27T03:04:33.683Z,99708.53
2022-07-27T03:07:03.079Z,99699.53
2022-07-27T03:09:33.332Z,99709.59
2022-07-27T03:12:01.672Z,99715.06
2022-07-27T03:14:29.649Z,99716.19
2022-07-27T03:16:57.638Z,99711.53
2022-07-27T03:19:30.020Z,99714.25
2022-07-27T03:21:58.387Z,99705.25
2022-07-27T03:24:27.759Z,99706.06
2022-07-27T03:26:55.729Z,99706.88
2022-07-27T03:29:23.719Z,99714.25
2022-07-27T03:31:56.101Z,99710.72
2022-07-27T03:34:24.051Z,99722.75
2022-07-27T03:36:51.940Z,99716.72
2022-07-27T03:39:19.888Z,99716.19
2022-07-27T03:41:49.231Z,99712.34
2022-07-27T03:44:17.252Z,99721.63
2022-07-27T03:46:45.237Z,99713.44
2022-07-27T03:49:14.303Z,99722.75
2022-07-27T03:51:43.033Z,99724.38
2022-07-27T03:54:10.946Z,99724.38
2022-07-27T03:56:38.940Z,99718.91
2022-07-27T03:59:08.432Z,99723.25
2022-07-27T04:01:36.839Z,99723.25
2022-07-27T04:04:05.003Z,99726.28
2022-07-27T04:06:33.019Z,99721.63
2022-07-27T04:09:08.583Z,99724.38
2022-07-27T04:11:43.355Z,99717.28
2022-07-27T04:14:13.720Z,99727.09
2022-07-27T04:16:41.729Z,99715.63
2022-07-27T04:19:09.989Z,99717.28
2022-07-27T04:21:38.251Z,99712.91
2022-07-27T04:24:07.119Z,99714.81
2022-07-27T04:26:35.114Z,99722.19
2022-07-27T04:29:03.032Z,99714.00
2022-07-27T04:31:32.595Z,99726.53
2022-07-27T04:34:00.797Z,99732.00
2022-07-27T04:36:28.829Z,99731.19
2022-07-27T04:38:56.789Z,99734.47
2022-07-27T04:41:30.258Z,99733.66
2022-07-27T04:43:58.616Z,99750.03
2022-07-27T04:46:27.467Z,99740.75
2022-07-27T04:48:57.047Z,99749.47
2022-07-27T04:51:25.058Z,99744.00
2022-07-27T04:53:57.645Z,99739.38
2022-07-27T04:56:26.615Z,99747.56
2022-07-27T04:58:54.680Z,99750.81
2022-07-27T05:01:23.870Z,99750.53
2022-07-27T05:03:51.941Z,99750.53
2022-07-27T05:06:21.495Z,99742.34
2022-07-27T05:08:49.442Z,99751.06
2022-07-27T05:11:17.669Z,99750.28
2022-07-27T05:13:45.758Z,99747.53
2022-07-27T05:16:13.794Z,99745.63
2022-07-27T05:18:41.815Z,99750.53
2022-07-27T05:21:10.004Z,99756.81
2022-07-27T05:23:39.368Z,99758.72
2022-07-27T05:26:07.319Z,99754.06
2022-07-27T05:28:35.307Z,99754.38
2022-07-27T05:31:03.379Z,99761.44
2022-07-27T05:33:31.325Z,99755.19
2022-07-27T05:35:59.382Z,99766.91
2022-07-27T05:38:27.357Z,99758.22
2022-07-27T05:40:56.705Z,99768.28
2022-07-27T05:43:24.653Z,99768.28
2022-07-27T05:45:52.709Z,99769.13
2022-07-27T05:48:20.718Z,99762.00
2022-07-27T05:50:48.673Z,99762.81
2022-07-27T05:53:16.606Z,99759.81
2022-07-27T05:55:58.134Z,99761.44
2022-07-27T05:58:29.555Z,99758.47
2022-07-27T06:00:57.813Z,99764.72
2022-07-27T06:03:25.994Z,99761.19
2022-07-27T06:06:14.046Z,99763.63
2022-07-27T06:08:41.007Z,99761.72
2022-07-27T06:11:08.924Z,99766.34
2022-07-27T06:13:42.276Z,99756.28
2022-07-27T06:16:10.791Z,99759.00
2022-07-27T06:18:38.852Z,99757.09
2022-07-27T06:21:06.856Z,99762.25
2022-07-27T06:23:34.880Z,99760.38
2022-07-27T06:26:02.873Z,99763.91
2022-07-27T06:28:30.864Z,99767.44
2022-07-27T06:31:01.271Z,99767.44
2022-07-27T06:33:30.856Z,99766.63
2022-07-27T06:35:59.743Z,99771.28
2022-07-27T06:38:29.614Z,99762.78
2022-07-27T06:40:57.647Z,99764.72
2022-07-27T06:43:26.519Z,99772.91
2022-07-27T06:45:55.266Z,99766.63
2022-07-27T06:48:24.620Z,99772.09
2022-07-27T06:50:52.994Z,99780.28
2022-07-27T06:53:21.769Z,99768.25
2022-07-27T06:55:49.935Z,99771.28
2022-07-27T06:58:17.982Z,99767.44
2022-07-27T07:00:46.099Z,99771.00
2022-07-27T07:03:14.097Z,99772.09
2022-07-27T07:05:44.473Z,99771.78
2022-07-27T07:08:13.290Z,99767.44
2022-07-27T07:10:41.553Z,99771.78
2022-07-27T07:13:09.717Z,99771.53
2022-07-27T07:15:38.436Z,99769.63
2022-07-27T07:18:06.897Z,99772.34
2022-07-27T07:20:34.967Z,99768.53
2022-07-27T07:23:04.595Z,99763.06
2022-07-27T07:25:32.609Z,99767.44
2022-07-27T07:28:01.002Z,99767.44
2022-07-27T07:30:29.213Z,99766.31
2022-07-27T07:32:57.209Z,99767.97
2022-07-27T07:35:25.232Z,99771.53
2022-07-27T07:37:53.237Z,99764.13
2022-07-27T07:43:11.289Z,99763.31
2022-07-27T07:45:51.510Z,99771.22
2022-07-27T07:48:21.153Z,99765.75
2022-07-27T07:50:51.352Z,99765.75
2022-07-27T07:53:20.604Z,99765.75
2022-07-27T07:55:49.961Z,99755.94
2022-07-27T07:58:18.130Z,99754.03
2022-07-27T08:00:46.104Z,99762.50
2022-07-27T08:03:14.259Z,99758.69
2022-07-27T08:05:42.422Z,99757.88
2022-07-27T08:08:10.381Z,99756.25
2022-07-27T08:10:38.345Z,99762.50
2022-07-27T08:13:08.713Z,99764.13
2022-07-27T08:15:36.800Z,99768.78
2022-07-27T08:18:04.992Z,99767.97
2022-07-27T08:20:33.030Z,99773.44
2022-07-27T08:23:00.997Z,99776.97
2022-07-27T08:25:28.941Z,99770.69
2022-07-27T08:27:56.891Z,99764.13
2022-07-27T08:30:26.413Z,99775.06
2022-07-27T08:32:55.404Z,99778.59
2022-07-27T08:35:23.473Z,99770.19
2022-07-27T08:37:51.573Z,99772.06
2022-07-27T08:43:07.735Z,99766.34
2022-07-27T08:45:38.236Z,99770.72
2022-07-27T08:48:07.021Z,99770.72
2022-07-27T08:50:35.465Z,99766.88
2022-07-27T08:53:04.391Z,99761.44
2022-07-27T08:55:32.823Z,99766.88
2022-07-27T08:58:03.381Z,99763.03
2022-07-27T09:00:31.776Z,99766.63
2022-07-27T09:03:01.189Z,99770.97
2022-07-27T09:05:37.107Z,99770.16
2022-07-27T09:08:12.726Z,99769.34
2022-07-27T09:10:40.985Z,99766.31
2022-07-27T09:13:22.124Z,99770.97
2022-07-27T09:18:41.281Z,99764.69
2022-07-27T09:21:10.622Z,99771.25
2022-07-27T09:23:38.645Z,99772.88
2022-07-27T09:26:29.826Z,99767.69
2022-07-27T09:28:59.642Z,99772.06
2022-07-27T09:31:27.723Z,99772.34
2022-07-27T09:33:59.582Z,99766.88
2022-07-27T09:36:28.167Z,99769.34
2022-07-27T09:39:01.885Z,99761.44
2022-07-27T09:41:40.532Z,99760.31
2022-07-27T09:46:56.586Z,99755.97
2022-07-27T09:49:29.917Z,99750.25
2022-07-27T09:52:01.134Z,99761.97
2022-07-27T09:54:29.954Z,99756.50
2022-07-27T09:57:04.349Z,99759.25
2022-07-27T09:59:32.039Z,99751.03
2022-07-27T10:02:00.634Z,99749.94
2022-07-27T10:04:30.048Z,99739.81
2022-07-27T10:07:03.345Z,99745.28
2022-07-27T10:09:33.874Z,99744.47
2022-07-27T10:12:04.578Z,99737.94
2022-07-27T10:14:33.485Z,99748.56
2022-07-27T10:17:01.519Z,99747.75
2022-07-27T10:19:33.397Z,99736.56
2022-07-27T10:22:01.962Z,99733.84
2022-07-27T10:24:32.257Z,99738.44
2022-07-27T10:27:00.352Z,99727.53
2022-07-27T10:29:28.305Z,99735.44
2022-07-27T10:32:00.947Z,99733.53
2022-07-27T10:34:37.827Z,99733.00
2022-07-27T10:37:12.652Z,99734.66
2022-07-27T10:39:43.109Z,99731.91
2022-07-27T10:42:35.286Z,99733.00
2022-07-27T10:45:06.154Z,99735.72
2022-07-27T10:47:42.518Z,99731.91
2022-07-27T10:50:31.991Z,99739.00
2022-07-27T10:53:04.902Z,99742.84
2022-07-27T10:55:46.186Z,99729.19
2022-07-27T10:58:48.781Z,99724.53
2022-07-27T11:01:17.767Z,99722.06
2022-07-27T11:03:52.742Z,99734.66
2022-07-27T11:06:37.589Z,99735.44
2022-07-27T11:09:59.989Z,99734.66
2022-07-27T11:12:00.806Z,99733.53
2022-07-27T11:14:31.842Z,99729.19
2022-07-27T11:17:24.249Z,99719.88
2022-07-27T11:19:53.254Z,99721.00
2022-07-27T11:22:50.150Z,99717.16
2022-07-27T11:25:19.932Z,99717.16
2022-07-27T11:27:49.052Z,99715.22
2022-07-27T11:30:24.140Z,99710.63
2022-07-27T11:32:52.092Z,99705.16
2022-07-27T11:35:20.529Z,99695.03
2022-07-27T11:38:01.204Z,99702.41
2022-07-27T11:43:33.534Z,99706.78
2022-07-27T11:46:11.925Z,99695.84
2022-07-27T11:49:05.035Z,99694.75
2022-07-27T11:51:28.504Z,99700.19
2022-07-27T11:54:02.031Z,99691.19
2022-07-27T11:56:32.165Z,99687.34
2022-07-27T11:59:08.080Z,99679.47
2022-07-27T12:01:37.273Z,99681.09
2022-07-27T12:04:13.053Z,99675.34
2022-07-27T12:06:41.760Z,99676.97
2022-07-27T12:09:13.558Z,99670.69
2022-07-27T12:11:50.374Z,99671.50
2022-07-27T12:14:18.633Z,99664.13
2022-07-27T12:16:47.223Z,99665.78
2022-07-27T12:19:23.427Z,99648.59
2022-07-27T12:21:54.485Z,99643.94
2022-07-27T12:24:34.820Z,99643.13
2022-07-27T12:27:06.546Z,99634.63
2022-07-27T12:29:35.053Z,99631.91
2022-07-27T12:32:04.380Z,99629.97
2022-07-27T12:34:36.436Z,99630.81
2022-07-27T12:37:12.418Z,99614.44
2022-07-27T12:39:42.938Z,99618.78
2022-07-27T12:42:11.094Z,99609.78
2022-07-27T12:44:40.673Z,99610.59
2022-07-27T12:47:28.024Z,99605.13
2022-07-27T12:50:06.314Z,99605.13
2022-07-27T12:52:34.313Z,99605.13
2022-07-27T12:55:03.826Z,99612.22
2022-07-27T12:57:53.963Z,99600.22
2022-07-27T13:00:20.376Z,99598.28
2022-07-27T13:02:48.505Z,99597.47
2022-07-27T13:05:16.643Z,99590.91
2022-07-27T13:07:46.084Z,99581.91
2022-07-27T13:10:18.316Z,99585.44
2022-07-27T13:12:46.388Z,99584.91
2022-07-27T13:15:14.477Z,99584.91
2022-07-27T13:17:42.502Z,99584.09
2022-07-27T13:20:12.578Z,99590.38
2022-07-27T13:22:40.806Z,99583.00
2022-07-27T13:25:15.923Z,99587.38
2022-07-27T13:27:46.135Z,99579.44
2022-07-27T13:30:14.992Z,99579.44
2022-07-27T13:32:43.059Z,99568.53
2022-07-27T13:35:12.477Z,99569.34
2022-07-27T13:37:40.471Z,99568.53
2022-07-27T13:40:09.972Z,99569.34
2022-07-27T13:42:38.103Z,99561.66
2022-07-27T13:45:10.979Z,99551.59
2022-07-27T13:47:39.969Z,99551.59
2022-07-27T13:50:16.742Z,99547.22
2022-07-27T13:52:46.419Z,99540.66
2022-07-27T13:55:14.964Z,99542.28
2022-07-27T13:57:42.992Z,99540.66
2022-07-27T14:00:13.633Z,99529.75
2022-07-27T14:02:45.346Z,99522.34
2022-07-27T14:05:14.397Z,99523.16
2022-07-27T14:07:43.563Z,99521.25
2022-07-27T14:10:30.373Z,99527.50
2022-07-27T14:13:08.337Z,99529.16
2022-07-27T14:15:50.568Z,99528.34
2022-07-27T14:18:21.929Z,99527.25
2022-07-27T14:20:49.963Z,99529.97
2022-07-27T14:23:19.713Z,99541.72
2022-07-27T14:25:47.737Z,99536.25
2022-07-27T14:28:16.242Z,99526.44
2022-07-27T14:30:45.624Z,99516.59
2022-07-27T14:33:13.544Z,99535.44
2022-07-27T14:35:41.614Z,99527.50
2022-07-27T14:38:09.833Z,99525.63
2022-07-27T14:40:37.943Z,99529.16
2022-07-27T14:43:06.354Z,99523.16
2022-07-27T14:45:44.951Z,99532.97
2022-07-27T14:48:21.539Z,99516.59
2022-07-27T14:50:53.227Z,99523.97
2022-07-27T14:53:21.287Z,99519.63
2022-07-27T14:55:49.350Z,99522.06
2022-07-27T14:58:17.434Z,99513.84
2022-07-27T15:00:45.842Z,99506.25
2022-07-27T15:03:15.589Z,99511.13
2022-07-27T15:05:50.557Z,99505.66
2022-07-27T15:08:20.094Z,99494.75
2022-07-27T15:10:48.573Z,99496.38
2022-07-27T15:13:16.787Z,99497.47
2022-07-27T15:15:44.824Z,99492.53
2022-07-27T15:18:12.857Z,99493.66
2022-07-27T15:20:42.218Z,99498.00
2022-07-27T15:23:10.277Z,99508.13
2022-07-27T15:25:38.275Z,99512.78
2022-07-27T15:28:06.441Z,99519.84
2022-07-27T15:30:38.685Z,99526.94
2022-07-27T15:33:07.144Z,99530.78
2022-07-27T15:35:35.230Z,99532.41
2022-07-27T15:38:04.730Z,99536.78
2022-07-27T15:40:38.908Z,99550.44
2022-07-27T15:43:06.987Z,99542.50
2022-07-27T15:45:38.587Z,99536.25
2022-07-27T15:48:08.375Z,99536.25
2022-07-27T15:50:39.234Z,99528.06
2022-07-27T15:53:08.627Z,99530.78
2022-07-27T15:55:37.597Z,99532.41
2022-07-27T15:58:05.732Z,99517.13
2022-07-27T16:00:39.137Z,99512.78
2022-07-27T16:03:07.756Z,99510.03
2022-07-27T16:05:38.499Z,99502.94
2022-07-27T16:08:09.695Z,99518.25
2022-07-27T16:10:37.951Z,99518.50
2022-07-27T16:13:06.150Z,99519.31
2022-07-27T16:15:51.797Z,99522.06
2022-07-27T16:18:19.986Z,99518.81
2022-07-27T16:20:48.020Z,99514.16
2022-07-27T16:23:19.071Z,99514.97
2022-07-27T16:26:07.507Z,99519.31
2022-07-27T16:28:36.840Z,99513.84
2022-07-27T16:31:05.252Z,99509.22
2022-07-27T16:33:33.395Z,99511.97
2022-07-27T16:36:01.524Z,99506.50
2022-07-27T16:38:31.261Z,99510.03
2022-07-27T16:40:59.297Z,99501.03
2022-07-27T16:43:38.652Z,99503.25
2022-07-27T16:46:08.098Z,99501.03
2022-07-27T16:48:42.525Z,99511.97
2022-07-27T16:51:12.220Z,99520.97
2022-07-27T16:53:43.006Z,99510.03
2022-07-27T16:56:11.083Z,99513.84
2022-07-27T16:58:39.399Z,99514.69
2022-07-27T17:01:07.537Z,99525.31
2022-07-27T17:03:35.421Z,99529.16
2022-07-27T17:06:06.345Z,99525.63
2022-07-27T17:08:35.037Z,99527.50
2022-07-27T17:11:05.421Z,99522.06
2022-07-27T17:13:35.097Z,99531.34
2022-07-27T17:16:03.572Z,99538.75
2022-07-27T17:18:37.143Z,99537.94
2022-07-27T17:21:09.524Z,99536.28
2022-07-27T17:23:39.769Z,99530.81
2022-07-27T17:26:09.469Z,99526.47
2022-07-27T17:28:39.540Z,99536.59
2022-07-27T17:31:08.694Z,99534.66
2022-07-27T17:33:36.820Z,99538.47
2022-07-27T17:36:09.710Z,99532.22
2022-07-27T17:38:42.497Z,99534.13
2022-07-27T17:41:12.366Z,99529.47
2022-07-27T17:43:40.344Z,99523.22
2022-07-27T17:46:08.897Z,99523.22
2022-07-27T17:48:37.068Z,99530.28
2022-07-27T17:51:05.158Z,99525.13
2022-07-27T17:53:33.563Z,99520.47
2022-07-27T17:56:02.847Z,99517.75
2022-07-27T17:58:32.284Z,99506.81
2022-07-27T18:01:00.311Z,99513.09
2022-07-27T18:03:28.486Z,99518.56
2022-07-27T18:05:56.686Z,99518.56
2022-07-27T18:08:24.811Z,99517.75
2022-07-27T18:10:52.822Z,99512.28
2022-07-27T18:13:20.779Z,99512.28
2022-07-27T18:15:50.648Z,99517.75
2022-07-27T18:18:19.666Z,99517.75
2022-07-27T18:20:50.203Z,99516.13
2022-07-27T18:23:18.142Z,99531.41
2022-07-27T18:25:46.475Z,99521.59
2022-07-27T18:28:16.310Z,99512.56
2022-07-27T18:30:44.389Z,99514.47
2022-07-27T18:33:14.550Z,99518.00
2022-07-27T18:35:43.107Z,99512.84
2022-07-27T18:38:11.141Z,99513.94
2022-07-27T18:40:39.454Z,99520.50
2022-07-27T18:43:07.880Z,99527.59
2022-07-27T18:45:35.821Z,99519.72
2022-07-27T18:48:03.931Z,99528.16
2022-07-27T18:50:38.655Z,99527.09
2022-07-27T18:53:07.287Z,99521.09
2022-07-27T18:55:35.288Z,99521.09
2022-07-27T18:58:03.487Z,99541.81
2022-07-27T19:00:31.518Z,99543.75
2022-07-27T19:02:59.598Z,99533.13
2022-07-27T19:05:40.896Z,99535.84
2022-07-27T19:08:12.937Z,99548.41
2022-07-27T19:10:41.544Z,99562.03
2022-07-27T19:13:10.457Z,99563.66
2022-07-27T19:15:38.610Z,99566.41
2022-07-27T19:18:06.900Z,99550.00
2022-07-27T19:20:36.248Z,99551.13
2022-07-27T19:23:04.382Z,99550.00
2022-07-27T19:25:34.229Z,99544.56
2022-07-27T19:28:02.324Z,99538.28
2022-07-27T19:30:30.359Z,99534.75
2022-07-27T19:32:58.516Z,99538.59
2022-07-27T19:35:26.485Z,99535.56
2022-07-27T19:37:54.482Z,99532.81
2022-07-27T19:43:12.027Z,99532.00
2022-07-27T19:45:40.574Z,99536.66
2022-07-27T19:48:08.687Z,99542.13
2022-07-27T19:50:36.746Z,99545.66
2022-07-27T19:53:04.926Z,99541.31
2022-07-27T19:55:33.078Z,99544.03
2022-07-27T19:58:01.132Z,99536.94
2022-07-27T20:00:34.203Z,99545.94
2022-07-27T20:03:02.583Z,99554.44
2022-07-27T20:05:30.744Z,99559.09
2022-07-27T20:07:58.742Z,99558.25
2022-07-27T20:10:26.742Z,99556.63
2022-07-27T20:12:54.679Z,99544.09
2022-07-27T20:15:22.826Z,99546.81
2022-07-27T20:17:52.385Z,99543.25
2022-07-27T20:20:20.373Z,99554.16
2022-07-27T20:22:48.480Z,99545.97
2022-07-27T20:25:16.473Z,99540.81
2022-07-27T20:27:44.481Z,99546.28
2022-07-27T20:30:14.561Z,99548.47
2022-07-27T20:32:42.490Z,99551.72
2022-07-27T20:35:11.952Z,99559.94
2022-07-27T20:37:48.848Z,99560.19
2022-07-27T20:40:16.820Z,99561.00
2022-07-27T20:42:44.765Z,99568.13
2022-07-27T20:45:14.692Z,99577.13
2022-07-27T20:47:43.146Z,99568.94
2022-07-27T20:50:13.429Z,99573.56
2022-07-27T20:52:41.586Z,99574.38
2022-07-27T20:55:10.165Z,99575.19
2022-07-27T20:57:38.289Z,99572.47
2022-07-27T21:00:07.646Z,99572.78
2022-07-27T21:02:35.754Z,99584.50
2022-07-27T21:05:03.800Z,99586.69
2022-07-27T21:07:33.117Z,99592.97
2022-07-27T21:10:01.147Z,99598.41
2022-07-27T21:12:29.141Z,99611.00
2022-07-27T21:14:57.066Z,99608.53
2022-07-27T21:17:25.078Z,99612.88
2022-07-27T21:19:53.421Z,99612.06
2022-07-27T21:22:21.568Z,99620.00
2022-07-27T21:24:51.437Z,99624.91
2022-07-27T21:27:21.211Z,99627.63
2022-07-27T21:29:49.733Z,99624.91
2022-07-27T21:32:17.735Z,99628.75
2022-07-27T21:34:45.774Z,99639.69
2022-07-27T21:37:13.831Z,99628.75
2022-07-27T21:39:41.774Z,99639.13
2022-07-27T21:42:11.272Z,99643.75
2022-07-27T21:44:39.429Z,99642.91
2022-07-27T21:47:13.046Z,99645.63
2022-07-27T21:49:42.022Z,99644.00
2022-07-27T21:52:11.271Z,99648.38
2022-07-27T21:54:39.531Z,99649.47
2022-07-27T21:57:07.504Z,99658.78
2022-07-27T21:59:36.833Z,99656.03
2022-07-27T22:02:04.869Z,99653.31
2022-07-27T22:04:32.967Z,99658.78
2022-07-27T22:07:01.029Z,99664.25
2022-07-27T22:09:29.074Z,99661.50
2022-07-27T22:11:57.102Z,99664.25
2022-07-27T22:14:25.141Z,99659.59
2022-07-27T22:16:54.621Z,99664.25
2022-07-27T22:19:23.516Z,99659.59
2022-07-27T22:21:51.498Z,99652.50
2022-07-27T22:24:19.560Z,99657.66
2022-07-27T22:26:47.761Z,99644.00
2022-07-27T22:29:15.767Z,99647.84
2022-07-27T22:31:43.766Z,99649.78
2022-07-27T22:34:13.446Z,99638.84
2022-07-27T22:36:41.574Z,99641.59
2022-07-27T22:39:09.516Z,99646.19
2022-07-27T22:41:37.503Z,99646.19
2022-07-27T22:44:05.743Z,99639.94
2022-07-27T22:46:36.645Z,99642.97
2022-07-27T22:49:04.740Z,99644.59
2022-07-27T22:51:48.640Z,99633.13
2022-07-27T22:54:18.787Z,99633.13
2022-07-27T22:56:47.125Z,99635.84
2022-07-27T22:59:15.099Z,99639.69
2022-07-27T23:01:45.967Z,99638.88
2022-07-27T23:04:16.561Z,99642.69
2022-07-27T23:06:46.475Z,99640.78
2022-07-27T23:09:14.525Z,99634.81
2022-07-27T23:11:42.540Z,99641.06
2022-07-27T23:14:10.687Z,99641.88
2022-07-27T23:16:38.934Z,99641.34
2022-07-27T23:19:06.845Z,99641.34
2022-07-27T23:21:34.982Z,99649.53
2022-07-27T23:24:07.528Z,99649.53
2022-07-27T23:26:37.998Z,99648.72
2022-07-27T23:29:05.954Z,99647.91
2022-07-27T23:31:33.990Z,99647.09
2022-07-27T23:34:02.034Z,99645.19
2022-07-27T23:36:30.033Z,99636.97
2022-07-27T23:38:58.027Z,99631.53
2022-07-27T23:41:27.598Z,99636.19
2022-07-27T23:43:55.542Z,99647.91
2022-07-27T23:46:23.653Z,99641.63
2022-07-27T23:48:51.714Z,99642.44
2022-07-27T23:51:20.078Z,99643.25
2022-07-27T23:53:48.430Z,99647.91
2022-07-27T23:56:16.723Z,99647.09
2022-07-27T23:58:46.073Z,99647.09
